createdAt,value
2023-03-06T00:01:48.775Z,2.74
2023-03-06T00:04:51.444Z,2.81
2023-03-06T00:07:53.613Z,2.86
2023-03-06T00:10:56.645Z,2.77
2023-03-06T00:13:58.871Z,2.75
2023-03-06T00:17:01.288Z,2.79
2023-03-06T00:20:04.995Z,2.71
2023-03-06T00:23:08.579Z,2.72
2023-03-06T00:26:10.827Z,2.66
2023-03-06T00:29:14.304Z,2.64
2023-03-06T00:32:16.512Z,2.69
2023-03-06T00:35:19.144Z,2.69
2023-03-06T00:38:21.308Z,2.72
2023-03-06T00:41:24.998Z,2.65
2023-03-06T00:44:27.138Z,2.66
2023-03-06T00:47:30.085Z,2.63
2023-03-06T00:50:35.088Z,2.64
2023-03-06T00:53:37.557Z,2.70
2023-03-06T00:56:39.830Z,2.66
2023-03-06T00:59:42.461Z,2.71
2023-03-06T01:02:44.637Z,2.68
2023-03-06T01:05:47.050Z,2.70
2023-03-06T01:08:49.260Z,2.70
2023-03-06T01:11:52.785Z,2.74
2023-03-06T01:14:54.847Z,2.77
2023-03-06T01:17:57.305Z,2.77
2023-03-06T01:20:59.430Z,2.80
2023-03-06T01:24:02.076Z,2.70
2023-03-06T01:27:04.249Z,2.64
2023-03-06T01:30:07.359Z,2.75
2023-03-06T01:33:09.570Z,2.71
2023-03-06T01:36:12.797Z,2.70
2023-03-06T01:39:14.960Z,2.68
2023-03-06T01:42:17.393Z,2.73
2023-03-06T01:45:19.447Z,2.76
2023-03-06T01:48:24.068Z,2.63
2023-03-06T01:51:32.016Z,2.62
2023-03-06T01:54:40.394Z,2.67
2023-03-06T01:57:45.273Z,2.66
2023-03-06T02:00:47.894Z,2.73
2023-03-06T02:03:51.290Z,2.75
2023-03-06T02:06:55.040Z,2.74
2023-03-06T02:09:58.388Z,2.74
2023-03-06T02:13:00.950Z,2.77
2023-03-06T02:16:03.707Z,2.76
2023-03-06T02:19:08.968Z,2.77
2023-03-06T02:22:11.611Z,2.80
2023-03-06T02:25:33.896Z,2.86
2023-03-06T02:28:36.230Z,2.86
2023-03-06T02:31:38.669Z,2.92
2023-03-06T02:34:54.917Z,2.91
2023-03-06T02:38:02.441Z,2.92
2023-03-06T02:41:08.266Z,2.96
2023-03-06T02:44:10.717Z,2.97
2023-03-06T02:47:12.993Z,2.94
2023-03-06T02:50:15.510Z,2.99
2023-03-06T02:53:19.602Z,3.04
2023-03-06T02:56:22.462Z,3.02
2023-03-06T02:59:24.853Z,2.92
2023-03-06T03:02:27.894Z,2.95
2023-03-06T03:05:30.521Z,3.00
2023-03-06T03:08:34.705Z,3.02
2023-03-06T03:11:37.229Z,3.05
2023-03-06T03:14:40.057Z,3.04
2023-03-06T03:17:42.727Z,3.08
2023-03-06T03:20:45.160Z,2.98
2023-03-06T03:23:47.327Z,3.07
2023-03-06T03:26:49.922Z,3.05
2023-03-06T03:29:53.014Z,3.14
2023-03-06T03:32:55.579Z,3.14
2023-03-06T03:35:58.985Z,3.12
2023-03-06T03:39:02.010Z,3.13
2023-03-06T03:42:04.453Z,3.10
2023-03-06T03:45:07.790Z,3.14
2023-03-06T03:48:10.114Z,3.16
2023-03-06T03:51:16.435Z,3.17
2023-03-06T03:54:19.378Z,3.14
2023-03-06T03:57:22.456Z,3.16
2023-03-06T04:00:25.585Z,3.17
2023-03-06T04:03:29.081Z,3.16
2023-03-06T04:06:31.418Z,3.16
2023-03-06T04:09:34.321Z,3.22
2023-03-06T04:12:37.241Z,3.21
2023-03-06T04:15:39.744Z,3.19
2023-03-06T04:18:42.439Z,3.21
2023-03-06T04:21:45.084Z,3.21
2023-03-06T04:24:49.822Z,3.20
2023-03-06T04:27:52.745Z,3.25
2023-03-06T04:30:54.984Z,3.21
2023-03-06T04:33:58.146Z,3.32
2023-03-06T04:37:00.808Z,3.25
2023-03-06T04:40:04.203Z,3.28
2023-03-06T04:43:06.543Z,3.33
2023-03-06T04:46:10.945Z,3.20
2023-03-06T04:49:13.144Z,3.31
2023-03-06T04:52:15.600Z,3.29
2023-03-06T04:55:18.762Z,3.18
2023-03-06T04:58:21.307Z,3.23
2023-03-06T05:01:23.538Z,3.21
2023-03-06T05:04:26.039Z,3.32
2023-03-06T05:07:28.352Z,3.29
2023-03-06T05:10:30.800Z,3.26
2023-03-06T05:13:33.385Z,3.27
2023-03-06T05:16:35.956Z,3.21
2023-03-06T05:19:38.416Z,3.19
2023-03-06T05:22:41.746Z,3.33
2023-03-06T05:25:44.044Z,3.43
2023-03-06T05:28:46.564Z,3.41
2023-03-06T05:31:48.824Z,3.20
2023-03-06T05:34:51.537Z,3.27
2023-03-06T05:37:53.827Z,3.32
2023-03-06T05:40:56.603Z,3.38
2023-03-06T05:43:59.058Z,3.40
2023-03-06T05:47:02.468Z,3.38
2023-03-06T05:50:05.509Z,3.29
2023-03-06T05:53:08.064Z,3.24
2023-03-06T05:56:10.626Z,3.10
2023-03-06T05:59:13.117Z,3.08
2023-03-06T06:02:15.949Z,3.16
2023-03-06T06:05:18.535Z,3.26
2023-03-06T06:08:21.163Z,3.35
2023-03-06T06:11:23.652Z,3.28
2023-03-06T06:14:26.167Z,3.25
2023-03-06T06:17:28.716Z,3.38
2023-03-06T06:20:30.837Z,3.32
2023-03-06T06:23:33.385Z,3.43
2023-03-06T06:26:35.577Z,3.43
2023-03-06T06:29:38.068Z,3.56
2023-03-06T06:32:40.653Z,3.76
2023-03-06T06:35:43.236Z,3.68
2023-03-06T06:38:46.317Z,3.69
2023-03-06T06:42:02.617Z,3.77
2023-03-06T06:45:12.799Z,3.76
2023-03-06T06:48:16.691Z,3.63
2023-03-06T06:51:20.843Z,3.70
2023-03-06T06:54:23.411Z,3.80
2023-03-06T06:57:25.697Z,3.90
2023-03-06T07:00:28.577Z,3.99
2023-03-06T07:03:30.852Z,3.89
2023-03-06T07:06:33.570Z,4.07
2023-03-06T07:09:35.854Z,4.10
2023-03-06T07:12:38.344Z,4.07
2023-03-06T07:15:40.560Z,4.12
2023-03-06T07:18:43.912Z,4.05
2023-03-06T07:21:46.060Z,3.91
2023-03-06T07:24:48.648Z,4.04
2023-03-06T07:27:54.143Z,4.27
2023-03-06T07:30:56.978Z,4.31
2023-03-06T07:33:59.539Z,4.30
2023-03-06T07:37:02.040Z,4.04
2023-03-06T07:40:06.223Z,4.04
2023-03-06T07:43:18.683Z,4.14
2023-03-06T07:46:22.281Z,4.27
2023-03-06T07:49:24.841Z,4.21
2023-03-06T07:52:27.045Z,4.10
2023-03-06T07:55:29.549Z,4.20
2023-03-06T07:58:33.669Z,4.17
2023-03-06T08:01:40.218Z,4.19
2023-03-06T08:04:42.842Z,4.24
2023-03-06T08:07:45.719Z,4.22
2023-03-06T08:10:49.263Z,4.02
2023-03-06T08:13:53.690Z,4.05
2023-03-06T08:16:56.786Z,4.30
2023-03-06T08:19:59.107Z,4.28
2023-03-06T08:23:01.580Z,4.37
2023-03-06T08:26:07.110Z,4.39
2023-03-06T08:29:09.976Z,4.45
2023-03-06T08:32:12.299Z,4.41
2023-03-06T08:35:14.824Z,4.69
2023-03-06T08:38:17.053Z,5.10
2023-03-06T08:41:20.524Z,5.40
2023-03-06T08:44:22.743Z,5.61
2023-03-06T08:47:25.503Z,5.88
2023-03-06T08:50:27.882Z,6.01
2023-03-06T08:53:42.094Z,6.09
2023-03-06T08:56:45.734Z,6.19
2023-03-06T08:59:48.195Z,6.57
2023-03-06T09:02:51.141Z,7.04
2023-03-06T09:05:53.663Z,7.13
2023-03-06T09:08:56.333Z,7.42
2023-03-06T09:11:58.812Z,7.41
2023-03-06T09:15:03.683Z,7.25
2023-03-06T09:18:06.223Z,7.60
2023-03-06T09:21:10.032Z,7.93
2023-03-06T09:24:12.702Z,8.10
2023-03-06T09:27:14.927Z,8.26
2023-03-06T09:30:18.890Z,8.67
2023-03-06T09:33:21.292Z,8.42
2023-03-06T09:36:23.933Z,8.39
2023-03-06T09:39:26.451Z,8.13
2023-03-06T09:42:29.168Z,8.16
2023-03-06T09:45:37.047Z,8.06
2023-03-06T09:48:58.053Z,8.31
2023-03-06T09:52:39.070Z,8.38
2023-03-06T09:55:44.169Z,8.88
2023-03-06T09:58:54.024Z,8.80
2023-03-06T10:01:59.361Z,9.04
2023-03-06T10:05:06.759Z,8.85
2023-03-06T10:08:23.792Z,9.41
2023-03-06T10:11:38.358Z,9.53
2023-03-06T10:14:48.474Z,8.58
2023-03-06T10:17:51.980Z,8.13
2023-03-06T10:21:18.670Z,8.03
2023-03-06T10:24:43.299Z,7.81
2023-03-06T10:27:48.615Z,7.58
2023-03-06T10:31:03.173Z,7.42
2023-03-06T10:34:08.461Z,7.25
2023-03-06T10:37:22.226Z,6.84
2023-03-06T10:40:35.327Z,6.87
2023-03-06T10:43:45.832Z,6.76
2023-03-06T10:46:51.539Z,6.70
2023-03-06T10:50:08.045Z,6.73
2023-03-06T10:53:24.605Z,6.64
2023-03-06T10:56:35.556Z,6.58
2023-03-06T10:59:51.229Z,6.73
2023-03-06T11:03:06.532Z,6.78
2023-03-06T11:06:31.700Z,6.66
2023-03-06T11:09:34.457Z,6.72
2023-03-06T11:12:38.933Z,6.96
2023-03-06T11:16:05.309Z,7.23
2023-03-06T11:19:28.770Z,7.22
2023-03-06T11:22:31.614Z,6.85
2023-03-06T11:25:39.886Z,7.14
2023-03-06T11:28:45.932Z,7.36
2023-03-06T11:31:51.577Z,7.41
2023-03-06T11:35:04.145Z,7.42
2023-03-06T11:38:14.304Z,7.50
2023-03-06T11:41:26.108Z,7.47
2023-03-06T11:44:36.880Z,7.56
2023-03-06T11:48:14.812Z,7.31
2023-03-06T11:51:31.441Z,7.55
2023-03-06T11:54:34.290Z,7.49
2023-03-06T11:57:48.171Z,7.51
2023-03-06T12:01:00.509Z,7.44
2023-03-06T12:04:37.364Z,7.41
2023-03-06T12:07:48.575Z,7.49
2023-03-06T12:11:05.458Z,7.45
2023-03-06T12:14:40.276Z,7.52
2023-03-06T12:18:13.841Z,7.44
2023-03-06T12:21:44.751Z,7.61
2023-03-06T12:25:09.536Z,7.70
2023-03-06T12:28:24.709Z,7.66
2023-03-06T12:31:27.379Z,7.78
2023-03-06T12:34:52.504Z,7.74
2023-03-06T12:38:07.696Z,8.06
2023-03-06T12:41:35.363Z,8.05
2023-03-06T12:44:59.383Z,8.11
2023-03-06T12:48:02.121Z,8.03
2023-03-06T12:51:07.691Z,7.93
2023-03-06T12:54:12.632Z,7.75
2023-03-06T12:57:15.814Z,7.71
2023-03-06T13:00:34.078Z,7.65
2023-03-06T13:03:55.351Z,7.62
2023-03-06T13:07:19.079Z,7.60
2023-03-06T13:10:35.631Z,7.65
2023-03-06T13:13:46.353Z,7.62
2023-03-06T13:16:48.961Z,7.34
2023-03-06T13:20:13.024Z,7.04
2023-03-06T13:23:34.144Z,6.99
2023-03-06T13:26:36.368Z,6.82
2023-03-06T13:29:38.798Z,6.64
2023-03-06T13:32:41.208Z,6.85
2023-03-06T13:35:52.822Z,7.11
2023-03-06T13:39:11.807Z,7.15
2023-03-06T13:42:57.083Z,7.21
2023-03-06T13:46:19.469Z,7.07
2023-03-06T13:49:24.718Z,7.07
2023-03-06T13:52:33.571Z,6.92
2023-03-06T13:56:04.276Z,6.97
2023-03-06T13:59:35.789Z,7.19
2023-03-06T14:03:07.694Z,7.12
2023-03-06T14:06:35.049Z,6.94
2023-03-06T14:09:52.321Z,6.87
2023-03-06T14:13:02.115Z,6.77
2023-03-06T14:16:17.496Z,6.61
2023-03-06T14:19:20.830Z,6.42
2023-03-06T14:22:24.928Z,6.53
2023-03-06T14:25:31.377Z,6.42
2023-03-06T14:28:35.670Z,6.34
2023-03-06T14:31:42.736Z,6.31
2023-03-06T14:34:46.733Z,6.34
2023-03-06T14:37:55.591Z,6.35
2023-03-06T14:40:58.526Z,6.22
2023-03-06T14:44:22.224Z,6.15
2023-03-06T14:47:33.837Z,6.24
2023-03-06T14:50:36.747Z,6.05
2023-03-06T14:53:39.061Z,5.93
2023-03-06T14:56:44.045Z,5.95
2023-03-06T14:59:56.208Z,5.93
2023-03-06T15:02:59.440Z,5.91
2023-03-06T15:06:02.931Z,5.83
2023-03-06T15:09:15.858Z,5.79
2023-03-06T15:12:21.319Z,5.89
2023-03-06T15:15:26.316Z,5.84
2023-03-06T15:18:35.453Z,5.78
2023-03-06T15:21:39.067Z,5.80
2023-03-06T15:24:41.357Z,5.75
2023-03-06T15:28:03.331Z,5.63
2023-03-06T15:31:24.690Z,5.62
2023-03-06T15:34:27.599Z,5.47
2023-03-06T15:37:29.822Z,5.34
2023-03-06T15:40:32.974Z,5.52
2023-03-06T15:43:39.349Z,5.48
2023-03-06T15:46:42.186Z,5.44
2023-03-06T15:49:44.738Z,5.34
2023-03-06T15:52:48.672Z,5.32
2023-03-06T15:55:51.668Z,5.19
2023-03-06T15:58:54.909Z,5.06
2023-03-06T16:01:59.554Z,5.05
2023-03-06T16:05:02.740Z,4.93
2023-03-06T16:08:05.905Z,5.08
2023-03-06T16:11:17.232Z,4.88
2023-03-06T16:14:23.566Z,4.83
2023-03-06T16:17:26.189Z,4.65
2023-03-06T16:20:29.600Z,4.61
2023-03-06T16:23:31.947Z,4.68
2023-03-06T16:26:35.516Z,4.52
2023-03-06T16:29:37.978Z,4.55
2023-03-06T16:32:40.663Z,4.48
2023-03-06T16:35:46.508Z,4.28
2023-03-06T16:38:49.638Z,4.34
2023-03-06T16:41:52.751Z,4.18
2023-03-06T16:44:54.933Z,4.26
2023-03-06T16:47:58.798Z,4.30
2023-03-06T16:51:01.921Z,4.12
2023-03-06T16:54:04.621Z,4.21
2023-03-06T16:57:06.842Z,4.17
2023-03-06T17:00:11.368Z,4.11
2023-03-06T17:03:13.558Z,4.14
2023-03-06T17:06:21.730Z,4.18
2023-03-06T17:09:23.960Z,4.20
2023-03-06T17:12:26.410Z,4.31
2023-03-06T17:15:28.833Z,4.31
2023-03-06T17:18:31.641Z,4.21
2023-03-06T17:21:35.370Z,4.14
2023-03-06T17:24:38.226Z,4.15
2023-03-06T17:27:40.536Z,4.15
2023-03-06T17:30:43.052Z,4.24
2023-03-06T17:33:46.315Z,4.19
2023-03-06T17:36:48.752Z,4.22
2023-03-06T17:39:51.082Z,4.13
2023-03-06T17:42:53.769Z,4.07
2023-03-06T17:45:55.919Z,4.17
2023-03-06T17:48:58.376Z,3.96
2023-03-06T17:52:02.826Z,4.04
2023-03-06T17:55:06.751Z,3.88
2023-03-06T17:58:11.387Z,3.95
2023-03-06T18:01:18.864Z,4.04
2023-03-06T18:04:21.345Z,3.92
2023-03-06T18:07:24.034Z,3.87
2023-03-06T18:10:26.552Z,3.98
2023-03-06T18:13:28.739Z,3.99
2023-03-06T18:16:31.708Z,4.00
2023-03-06T18:19:33.983Z,4.11
2023-03-06T18:22:36.425Z,4.10
2023-03-06T18:25:38.623Z,4.08
2023-03-06T18:28:47.518Z,4.12
2023-03-06T18:31:50.354Z,3.93
2023-03-06T18:34:55.032Z,4.10
2023-03-06T18:37:57.205Z,3.99
2023-03-06T18:40:59.717Z,3.90
2023-03-06T18:44:02.506Z,3.89
2023-03-06T18:47:05.179Z,3.84
2023-03-06T18:50:07.724Z,4.04
2023-03-06T18:53:10.164Z,4.06
2023-03-06T18:56:21.338Z,4.10
2023-03-06T18:59:23.892Z,4.00
2023-03-06T19:02:26.288Z,3.90
2023-03-06T19:05:28.849Z,4.09
2023-03-06T19:08:31.045Z,4.07
2023-03-06T19:11:34.128Z,3.91
2023-03-06T19:14:36.700Z,3.83
2023-03-06T19:17:39.269Z,3.89
2023-03-06T19:20:42.198Z,3.84
2023-03-06T19:23:45.092Z,3.98
2023-03-06T19:26:47.272Z,3.59
2023-03-06T19:29:49.743Z,3.51
2023-03-06T19:32:53.442Z,3.63
2023-03-06T19:35:55.985Z,3.71
2023-03-06T19:38:59.963Z,3.69
2023-03-06T19:42:04.562Z,3.62
2023-03-06T19:45:07.719Z,3.62
2023-03-06T19:48:12.368Z,3.63
2023-03-06T19:51:14.601Z,3.61
2023-03-06T19:54:17.398Z,3.65
2023-03-06T19:57:20.256Z,3.60
2023-03-06T20:00:22.734Z,3.58
2023-03-06T20:03:25.220Z,3.63
2023-03-06T20:06:33.379Z,3.61
2023-03-06T20:09:35.903Z,3.46
2023-03-06T20:12:38.567Z,3.40
2023-03-06T20:15:41.078Z,3.35
2023-03-06T20:18:43.436Z,3.31
2023-03-06T20:21:45.945Z,3.27
2023-03-06T20:24:48.145Z,3.31
2023-03-06T20:27:50.586Z,3.38
2023-03-06T20:30:52.775Z,3.44
2023-03-06T20:33:58.355Z,3.46
2023-03-06T20:37:01.010Z,3.57
2023-03-06T20:40:04.351Z,3.65
2023-03-06T20:43:07.318Z,3.65
2023-03-06T20:46:11.081Z,3.59
2023-03-06T20:49:14.478Z,3.56
2023-03-06T20:52:16.791Z,3.52
2023-03-06T20:55:18.901Z,3.67
2023-03-06T20:58:23.247Z,3.62
2023-03-06T21:01:38.401Z,3.72
2023-03-06T21:04:41.119Z,3.74
2023-03-06T21:07:43.417Z,3.78
2023-03-06T21:10:46.731Z,3.94
2023-03-06T21:13:48.966Z,3.85
2023-03-06T21:16:51.460Z,3.79
2023-03-06T21:19:53.720Z,3.77
2023-03-06T21:22:56.317Z,3.83
2023-03-06T21:25:58.529Z,3.83
2023-03-06T21:29:01.917Z,3.89
2023-03-06T21:32:04.549Z,3.85
2023-03-06T21:35:07.105Z,3.75
2023-03-06T21:38:09.615Z,3.76
2023-03-06T21:41:17.517Z,3.75
2023-03-06T21:44:19.830Z,3.71
2023-03-06T21:47:22.259Z,3.64
2023-03-06T21:50:25.632Z,3.53
2023-03-06T21:53:27.985Z,3.50
2023-03-06T21:56:30.172Z,3.43
2023-03-06T21:59:32.664Z,3.43
2023-03-06T22:02:35.480Z,3.40
2023-03-06T22:05:37.948Z,3.32
2023-03-06T22:08:41.145Z,3.35
2023-03-06T22:11:43.609Z,3.33
2023-03-06T22:14:46.079Z,3.28
2023-03-06T22:17:48.615Z,3.31
2023-03-06T22:20:52.127Z,3.32
2023-03-06T22:23:57.325Z,3.26
2023-03-06T22:26:59.480Z,3.24
2023-03-06T22:30:01.972Z,3.26
2023-03-06T22:33:04.341Z,3.23
2023-03-06T22:36:09.974Z,3.35
2023-03-06T22:39:13.346Z,3.32
2023-03-06T22:42:15.668Z,3.21
2023-03-06T22:45:17.707Z,3.17
2023-03-06T22:48:20.943Z,3.18
2023-03-06T22:51:23.126Z,3.25
2023-03-06T22:54:25.899Z,3.28
2023-03-06T22:57:28.067Z,3.31
2023-03-06T23:00:30.488Z,3.39
2023-03-06T23:03:32.615Z,3.27
2023-03-06T23:06:37.592Z,3.42
2023-03-06T23:09:39.739Z,3.44
2023-03-06T23:13:00.489Z,3.49
2023-03-06T23:16:21.396Z,3.36
2023-03-06T23:19:42.278Z,3.45
2023-03-06T23:23:03.188Z,3.39
2023-03-06T23:26:19.332Z,3.21
2023-03-06T23:29:22.373Z,3.07
2023-03-06T23:32:24.826Z,3.03
2023-03-06T23:35:27.374Z,2.94
2023-03-06T23:38:30.078Z,2.80
2023-03-06T23:41:32.645Z,2.78
2023-03-06T23:44:35.679Z,2.80
2023-03-06T23:47:38.128Z,2.67
2023-03-06T23:50:41.008Z,2.66
2023-03-06T23:53:45.385Z,2.66
2023-03-06T23:56:47.555Z,2.69
2023-03-06T23:59:50.128Z,2.61
